Station: Karoonda

  Atmospheric Gas Attenuation - ITU Rec 676-11   --------------- db/100km ---------------
Date Time Temp RH % AH g/m3 Dew Point Wind Direction Speed kph Gust kph Barometer mB Rainfall Since 9am 24GHz 47GHz 76GHz 122GHz 134GHz 241GHz
27 09:00 12.8 70 7.84 7.5 0 1013.1 0.2 18.0 25.0 37.2 97.6 89.6 307.7
26 09:00 11.8 66 6.95 5.8 4 1013.1 5 16.2 23.8 34.2 89.5 79.2 271.1
25 09:00 8.5 88 7.52 6.6 15 1013.1 6 17.5 25.7 38.0 99.6 90.4 309.6
23 09:00 13.3 69 7.97 7.8 1013.1 2 18.3 25.0 37.5 98.4 90.7 311.6
22 09:00 14.1 71 8.62 9 1013.1 0.6 19.6 25.8 39.7 104.2 98.3 338.1
20 09:00 17.8 71 10.78 12.6 11 1013.1 0 24.0 28.2 46.5 122.3 121.8 420.9
19 09:00 19.1 67 10.98 12.9 11 1013.1 0 24.4 28.1 46.5 122.4 122.4 423.2
18 09:00 17.5 65 9.69 11 6 1013.1 0 21.7 26.6 42.2 111.0 107.8 371.8
16 09:00 18 43 6.6 5.2 11 1013.1 0 15.2 21.8 30.5 79.6 69.2 236.7
15 09:00 11 85 8.51 8.6 0 1013.1 0.1 19.5 26.6 40.9 107.2 100.8 346.5
14 09:00 13 94 10.66 12.1 11 1013.1 0.2 24.1 29.6 48.9 128.7 128.0 441.8
13 09:00 13.5 82 9.59 10.6 7 1013.1 9 21.7 27.6 44.0 115.7 112.1 386.5
12 09:00 17.5 74 11.03 12.9 4 1013.1 0 24.6 28.7 47.7 125.5 125.7 434.4
10 09:00 10.4 71 6.84 5.4 0 1013.1 0.1 16.0 24.0 34.4 90.0 79.3 271.0
08 09:00 15.7 71 9.5 10.6 2 1013.1 0 21.4 26.8 42.4 111.5 107.8 371.6
07 09:00 18.8 28 4.51 0.2 28 1013.1 0 10.8 18.7 23.2 60.2 45.5 153.6
06 09:00 17.1 51 7.42 6.9 6 1013.1 0 16.9 23.2 33.8 88.4 79.7 273.5
05 09:00 12.5 79 8.69 8.9 4 1013.1 2 19.8 26.4 40.8 107.2 101.3 348.4
04 09:00 11.4 83 8.52 8.6 0 1013.1 0 19.5 26.5 40.7 106.8 100.4 345.2
31 09:00 9.4 93 8.41 8.4 0 1013.1 1 19.4 26.9 41.3 108.3 101.5 348.8
30 09:00 14.5 74 9.2 9.9 4 1013.1 0.1 20.8 26.7 41.9 109.9 105.4 363.2
29 09:00 16.4 46 6.42 4.8 9 1013.1 0 14.8 21.9 30.4 79.4 68.5 233.9
27 09:00 13.4 62 7.21 6.3 0 1013.1 0 16.6 23.8 34.5 90.4 80.9 277.2
26 09:00 8.9 74 6.48 4.6 0 1013.1 0.1 15.3 23.8 33.6 87.9 76.1 259.6
25 09:00 8 86 7.11 5.8 0 1013.1 0 16.7 25.1 36.5 95.7 85.4 292.1
24 09:00 5.1 99 6.78 4.9 0 1013.1 0 16.1 25.4 36.5 95.6 84.0 287.0
23 09:00 8.8 95 8.27 8 4 1013.1 4 19.1 26.8 41.0 107.6 100.4 344.6
22 09:00 8.9 77 6.75 5.1 11 1013.1 2 15.8 24.3 34.7 90.7 79.6 272.0
21 09:00 9 81 7.14 6 2 1013.1 1 16.7 24.9 36.2 94.8 84.7 289.8
18 09:00 11.6 82 8.52 8.6 0 1013.1 3 19.5 26.4 40.6 106.5 100.1 344.3
17 09:00 8.3 93 7.84 7.3 2 1013.1 0 18.2 26.2 39.4 103.4 95.0 325.9
16 09:00 12.5 77 8.47 8.7 7 1013.1 0.2 19.4 26.1 39.9 104.8 98.3 338.0
15 09:00 11.9 91 9.64 10.5 0 1013.1 0.4 21.9 28.2 45.1 118.7 115.2 397.0
14 09:00 12.2 90 9.71 10.7 4 1013.1 2 22.1 28.2 45.3 119.0 115.7 398.9
11 09:00 11.8 77 8.11 7.9 1013.1 0 18.6 25.7 38.8 101.8 94.4 324.1
10 09:00 6 100 7.26 6 0 1013.1 0.2 17.1 25.9 38.1 99.9 89.7 307.0
08 09:00 10.1 97 9.17 9.7 6 1013.1 7 21.0 28.0 44.1 116.0 111.2 382.9
07 09:00 7.1 85 6.63 4.8 6 1013.1 0 15.7 24.6 35.0 91.5 79.9 272.7
06 09:00 3.5 99 6.09 3.3 0 1013.1 0 14.6 24.7 34.3 89.8 76.2 259.2
04 09:00 7.1 78 6.09 3.6 0 1013.1 0.6 14.5 23.7 32.8 85.7 72.7 247.5
03 09:00 7.4 81 6.44 4.4 0 1013.1 0 15.2 24.2 34.1 89.1 77.0 262.8
02 09:00 8.8 70 6.09 3.7 0 1013.1 0.1 14.4 23.3 32.1 83.9 71.1 242.3
31 09:00 7.1 95 7.41 6.4 1013.1 0.1 17.3 25.9 38.2 100.1 90.5 309.9
30 09:00 8.4 100 8.49 8.4 0 1013.1 0.2 19.6 27.3 42.1 110.7 104.0 357.3
29 09:00 2.5 65 3.74 -3.4 0 1013.1 0 9.6 21.2 25.3 65.7 46.0 153.0
28 09:00 6.6 85 6.42 4.3 0 1013.1 0 15.2 24.4 34.3 89.8 77.6 264.5
26 09:00 5.9 97 7 5.4 0 1013.1 0 16.5 25.5 37.1 97.1 86.2 294.7
25 09:00 7 88 6.82 5.2 4 1013.1 0 16.1 24.9 35.8 93.7 82.5 282.0
22 09:00 9.8 78 7.24 6.1 0 1013.1 0 16.9 24.8 36.2 94.9 85.1 291.5
21 09:00 8 97 8.02 7.6 0 1013.1 0 18.6 26.6 40.3 105.8 97.9 335.9
20 09:00 6.6 95 7.18 5.9 0 1013.1 0.2 16.9 25.6 37.5 98.2 87.9 300.7
19 09:00 12.1 81 8.69 8.9 9 1013.1 0 19.9 26.5 41.0 107.7 101.8 350.1
18 09:00 10 63 5.92 3.4 7 1013.1 0 14.0 22.7 31.0 80.9 67.9 231.1
17 09:00 6.1 84 6.14 3.7 0 1013.1 0.2 14.6 24.0 33.4 87.4 74.3 253.0
16 09:00 6.5 88 6.6 4.7 0 1013.1 0 15.6 24.7 35.1 91.9 80.1 273.3
14 09:00 5.1 99 6.78 4.9 0 1013.1 0.2 16.1 25.4 36.5 95.6 84.0 287.0
13 09:00 8 99 8.19 7.8 0 1013.1 0.4 19.0 26.9 41.1 107.8 100.3 344.3
12 09:00 9.4 95 8.59 8.6 17 1013.1 4 19.8 27.2 42.0 110.4 104.0 357.6
10 09:00 8.1 82 6.83 5.2 0 1013.1 0 16.0 24.6 35.3 92.5 81.5 278.5
09 09:00 6.1 97 7.09 5.7 6 1013.1 0 16.7 25.6 37.3 97.8 87.2 298.3
08 09:00 8.5 86 7.35 6.3 2 1013.1 0 17.2 25.4 37.3 97.7 88.1 301.5
06 09:00 6.7 91 6.92 5.3 0 1013.1 0 16.3 25.2 36.4 95.2 84.2 287.9
05 09:00 11.1 92 9.27 9.9 7 1013.1 0.8 21.2 27.8 44.0 115.6 111.2 382.9
04 09:00 10 95 8.93 9.2 4 1013.1 0.6 20.5 27.6 43.2 113.4 108.0 371.5
02 09:00 8.7 89 7.7 7 2 1013.1 2 17.9 25.9 38.6 101.3 92.6 317.5
01 09:00 9.4 61 5.52 2.3 0 1013.1 0 13.2 22.2 29.7 77.5 63.4 215.3
30 09:00 7.6 72 5.8 2.9 6 1013.1 0 13.9 23.1 31.5 82.1 68.5 232.8
29 09:00 2.5 94 5.41 1.7 0 1013.1 0 13.2 23.8 31.9 83.3 67.8 229.7
28 09:00 5.8 82 5.88 2.9 0 1013.1 0 14.1 23.7 32.5 84.9 71.1 241.9
27 09:00 7.8 86 7.02 5.6 0 1013.1 0.4 16.5 25.0 36.3 94.9 84.4 288.6
25 09:00 7.9 80 6.57 4.7 2 1013.1 0 15.5 24.3 34.4 89.9 78.2 267.1
24 09:00 10.1 99 9.36 9.9 0 1013.1 0.4 21.4 28.3 45.0 118.2 113.9 392.4
23 09:00 11.2 95 9.63 10.4 7 1013.1 3 21.9 28.4 45.5 119.6 116.1 400.2
21 09:00 1013.1
19 09:00 11.4 64 6.57 4.8 7 1013.1 0 15.4 23.3 32.9 86.1 74.8 255.6
18 09:00 8 91 7.53 6.7 6 1013.1 0 17.6 25.8 38.3 100.3 91.1 312.1
17 09:00 8.8 99 8.62 8.6 0 1013.1 0.2 19.9 27.4 42.5 111.6 105.3 361.9
16 09:00 12.1 89 9.55 10.4 0 1013.1 1 21.7 28.0 44.6 117.3 113.6 391.6
15 09:00 13.4 86 10 11.1 4 1013.1 0.2 22.6 28.3 45.8 120.4 118.0 406.9
14 09:00 11.5 82 8.47 8.5 6 1013.1 3 19.4 26.4 40.4 106.1 99.6 342.4
12 09:00 4.6 97 6.42 4.1 0 1013.1 0 15.3 24.9 35.2 92.2 79.6 271.4
11 09:00 2.8 93 5.46 1.8 0 1013.1 0 13.3 23.8 32.0 83.6 68.2 231.2
10 09:00 3.7 97 6.05 3.2 0 1013.1 0 14.5 24.6 34.1 89.1 75.4 256.6
08 09:00 3.2 93 5.61 2.2 0 1013.1 0 13.6 24.0 32.5 84.8 69.9 237.1
07 09:00 7.7 68 5.52 2.2 0 1013.1 0 13.3 22.6 30.3 79.1 64.8 219.9
06 09:00 7.5 93 7.45 6.4 0 1013.1 0 17.4 25.8 38.2 100.1 90.6 310.3
04 09:00 5.1 99 6.78 4.9 0 1013.1 0 16.1 25.4 36.5 95.6 84.0 287.0
03 09:00 12 76 8.1 7.9 2 1013.1 0.4 18.6 25.6 38.7 101.4 94.0 322.8
02 09:00 10.1 99 9.36 9.9 0 1013.1 0.4 21.4 28.3 45.0 118.2 113.9 392.4
31 09:00 10.9 91 9.05 9.5 6 1013.1 0.2 20.7 27.5 43.2 113.4 108.4 373.1
30 09:00 1013.1
29 09:00 8.6 93 7.99 7.5 0 1013.1 0.1 18.5 26.4 39.9 104.7 96.7 331.9
27 09:00 10.6 76 7.42 6.6 6 1013.1 0 17.2 24.9 36.6 95.9 86.6 296.8
26 09:00 7.4 91 7.24 6.1 0 1013.1 0 17.0 25.5 37.4 97.9 87.8 300.5
25 09:00 8.4 88 7.47 6.5 0 1013.1 0.2 17.4 25.6 37.8 99.1 89.8 307.6
23 09:00 12.1 99 10.62 11.9 2 1013.1 3 24.0 29.9 49.3 129.7 128.9 444.9
22 09:00 10.6 92 8.98 9.4 0 1013.1 0.6 20.6 27.5 43.0 113.1 107.8 371.1
19 09:00 12.1 69 7.4 6.7 6 1013.1 0 17.1 24.4 35.8 93.9 84.7 290.3
18 09:00 10.2 79 7.52 6.8 0 1013.1 0 17.4 25.2 37.2 97.4 88.4 303.0
17 09:00 11.7 91 9.52 10.3 0 1013.1 0 21.7 28.1 44.7 117.6 113.8 392.2

Last Refresh: 27-Sep-2020 12:43:10

Most of the information presented on this site is sourced from the Bureau of Meteorology.  Copyright in all material sourced from the Bureau of Meteorology resides with the Commonwealth of Australia.